sensor_id;sensor_type;location;lat;lon;timestamp;P1;durP1;ratioP1;P2;durP2;ratioP2
8361;SDS011;4218;48.326;14.304;2023-02-15T00:01:08;23.53;;;21.30;;
8361;SDS011;4218;48.326;14.304;2023-02-15T00:03:34;20.93;;;18.40;;
8361;SDS011;4218;48.326;14.304;2023-02-15T00:06:00;19.77;;;17.70;;
8361;SDS011;4218;48.326;14.304;2023-02-15T00:08:25;23.93;;;18.40;;
8361;SDS011;4218;48.326;14.304;2023-02-15T00:10:51;20.13;;;18.17;;
8361;SDS011;4218;48.326;14.304;2023-02-15T00:13:16;21.77;;;19.97;;
8361;SDS011;4218;48.326;14.304;2023-02-15T00:15:42;18.70;;;16.27;;
8361;SDS011;4218;48.326;14.304;2023-02-15T00:18:07;17.90;;;16.20;;
8361;SDS011;4218;48.326;14.304;2023-02-15T00:20:32;18.53;;;15.77;;
8361;SDS011;4218;48.326;14.304;2023-02-15T00:22:58;20.83;;;17.77;;
8361;SDS011;4218;48.326;14.304;2023-02-15T00:25:23;19.73;;;17.10;;
8361;SDS011;4218;48.326;14.304;2023-02-15T00:27:49;18.33;;;15.87;;
8361;SDS011;4218;48.326;14.304;2023-02-15T00:30:14;21.07;;;16.70;;
8361;SDS011;4218;48.326;14.304;2023-02-15T00:32:40;17.27;;;14.73;;
8361;SDS011;4218;48.326;14.304;2023-02-15T00:35:05;19.53;;;17.67;;
8361;SDS011;4218;48.326;14.304;2023-02-15T00:37:33;19.93;;;18.03;;
8361;SDS011;4218;48.326;14.304;2023-02-15T00:39:58;18.67;;;16.67;;
8361;SDS011;4218;48.326;14.304;2023-02-15T00:42:24;18.50;;;16.73;;
8361;SDS011;4218;48.326;14.304;2023-02-15T00:44:49;16.67;;;14.97;;
8361;SDS011;4218;48.326;14.304;2023-02-15T00:47:14;20.10;;;17.20;;
8361;SDS011;4218;48.326;14.304;2023-02-15T00:49:40;20.50;;;18.47;;
8361;SDS011;4218;48.326;14.304;2023-02-15T00:52:05;18.60;;;17.03;;
8361;SDS011;4218;48.326;14.304;2023-02-15T00:54:30;17.27;;;15.47;;
8361;SDS011;4218;48.326;14.304;2023-02-15T00:56:56;17.50;;;15.90;;
8361;SDS011;4218;48.326;14.304;2023-02-15T00:59:21;14.50;;;13.10;;
8361;SDS011;4218;48.326;14.304;2023-02-15T01:01:46;16.70;;;13.90;;
8361;SDS011;4218;48.326;14.304;2023-02-15T01:04:12;18.33;;;16.53;;
8361;SDS011;4218;48.326;14.304;2023-02-15T01:06:37;17.83;;;15.23;;
8361;SDS011;4218;48.326;14.304;2023-02-15T01:09:03;15.27;;;13.57;;
8361;SDS011;4218;48.326;14.304;2023-02-15T01:11:28;16.73;;;15.03;;
8361;SDS011;4218;48.326;14.304;2023-02-15T01:13:54;16.50;;;14.67;;
8361;SDS011;4218;48.326;14.304;2023-02-15T01:16:21;16.57;;;14.50;;
8361;SDS011;4218;48.326;14.304;2023-02-15T01:18:50;17.53;;;15.87;;
8361;SDS011;4218;48.326;14.304;2023-02-15T01:21:17;16.63;;;14.93;;
8361;SDS011;4218;48.326;14.304;2023-02-15T01:23:44;17.37;;;15.77;;
8361;SDS011;4218;48.326;14.304;2023-02-15T01:26:10;17.40;;;15.60;;
8361;SDS011;4218;48.326;14.304;2023-02-15T01:28:36;17.97;;;16.17;;
8361;SDS011;4218;48.326;14.304;2023-02-15T01:31:08;18.93;;;16.67;;
8361;SDS011;4218;48.326;14.304;2023-02-15T01:33:38;15.70;;;14.13;;
8361;SDS011;4218;48.326;14.304;2023-02-15T01:36:04;16.47;;;14.43;;
8361;SDS011;4218;48.326;14.304;2023-02-15T01:38:30;15.37;;;13.67;;
8361;SDS011;4218;48.326;14.304;2023-02-15T01:40:55;15.33;;;13.87;;
8361;SDS011;4218;48.326;14.304;2023-02-15T01:43:42;21.77;;;19.80;;
8361;SDS011;4218;48.326;14.304;2023-02-15T01:46:13;16.23;;;14.27;;
8361;SDS011;4218;48.326;14.304;2023-02-15T01:48:44;20.40;;;18.33;;
8361;SDS011;4218;48.326;14.304;2023-02-15T01:51:13;18.10;;;16.37;;
8361;SDS011;4218;48.326;14.304;2023-02-15T01:53:52;17.60;;;16.10;;
8361;SDS011;4218;48.326;14.304;2023-02-15T01:56:23;16.50;;;14.83;;
8361;SDS011;4218;48.326;14.304;2023-02-15T01:58:52;14.77;;;13.30;;
8361;SDS011;4218;48.326;14.304;2023-02-15T02:01:20;16.03;;;14.40;;
8361;SDS011;4218;48.326;14.304;2023-02-15T02:06:21;17.40;;;15.57;;
8361;SDS011;4218;48.326;14.304;2023-02-15T02:08:48;17.10;;;15.07;;
8361;SDS011;4218;48.326;14.304;2023-02-15T02:11:14;18.07;;;16.23;;
8361;SDS011;4218;48.326;14.304;2023-02-15T02:13:40;17.47;;;15.93;;
8361;SDS011;4218;48.326;14.304;2023-02-15T02:27:29;17.53;;;15.73;;
8361;SDS011;4218;48.326;14.304;2023-02-15T02:33:32;16.97;;;15.27;;
8361;SDS011;4218;48.326;14.304;2023-02-15T02:49:47;23.73;;;21.80;;
8361;SDS011;4218;48.326;14.304;2023-02-15T02:55:03;26.37;;;24.37;;
8361;SDS011;4218;48.326;14.304;2023-02-15T02:57:55;21.30;;;19.37;;
8361;SDS011;4218;48.326;14.304;2023-02-15T03:00:36;16.53;;;14.63;;
8361;SDS011;4218;48.326;14.304;2023-02-15T03:03:07;16.47;;;15.00;;
8361;SDS011;4218;48.326;14.304;2023-02-15T03:05:41;19.37;;;15.23;;
8361;SDS011;4218;48.326;14.304;2023-02-15T03:08:09;16.40;;;15.07;;
8361;SDS011;4218;48.326;14.304;2023-02-15T03:10:37;26.60;;;24.20;;
8361;SDS011;4218;48.326;14.304;2023-02-15T03:13:05;20.60;;;18.50;;
8361;SDS011;4218;48.326;14.304;2023-02-15T03:15:34;19.73;;;17.77;;
8361;SDS011;4218;48.326;14.304;2023-02-15T03:18:23;19.50;;;17.57;;
8361;SDS011;4218;48.326;14.304;2023-02-15T03:20:52;21.03;;;17.27;;
8361;SDS011;4218;48.326;14.304;2023-02-15T03:23:21;24.07;;;21.93;;
8361;SDS011;4218;48.326;14.304;2023-02-15T03:25:51;19.17;;;17.30;;
8361;SDS011;4218;48.326;14.304;2023-02-15T03:28:23;17.67;;;15.90;;
8361;SDS011;4218;48.326;14.304;2023-02-15T03:30:55;17.10;;;15.33;;
8361;SDS011;4218;48.326;14.304;2023-02-15T03:33:24;16.27;;;14.73;;
8361;SDS011;4218;48.326;14.304;2023-02-15T03:36:04;16.70;;;14.63;;
8361;SDS011;4218;48.326;14.304;2023-02-15T03:38:42;20.57;;;18.33;;
8361;SDS011;4218;48.326;14.304;2023-02-15T03:41:12;16.20;;;14.33;;
8361;SDS011;4218;48.326;14.304;2023-02-15T03:48:46;19.87;;;17.73;;
8361;SDS011;4218;48.326;14.304;2023-02-15T03:51:20;21.70;;;19.67;;
8361;SDS011;4218;48.326;14.304;2023-02-15T03:54:03;17.60;;;15.77;;
8361;SDS011;4218;48.326;14.304;2023-02-15T03:56:34;17.70;;;15.80;;
8361;SDS011;4218;48.326;14.304;2023-02-15T03:59:01;16.13;;;14.67;;
8361;SDS011;4218;48.326;14.304;2023-02-15T04:01:47;17.20;;;15.50;;
8361;SDS011;4218;48.326;14.304;2023-02-15T04:04:36;16.60;;;15.10;;
8361;SDS011;4218;48.326;14.304;2023-02-15T04:07:06;17.80;;;16.00;;
8361;SDS011;4218;48.326;14.304;2023-02-15T04:09:33;18.07;;;16.17;;
8361;SDS011;4218;48.326;14.304;2023-02-15T04:12:17;16.73;;;15.00;;
8361;SDS011;4218;48.326;14.304;2023-02-15T04:14:43;20.00;;;18.23;;
8361;SDS011;4218;48.326;14.304;2023-02-15T04:17:27;16.60;;;15.07;;
8361;SDS011;4218;48.326;14.304;2023-02-15T04:19:52;17.37;;;15.63;;
8361;SDS011;4218;48.326;14.304;2023-02-15T04:22:36;15.23;;;13.70;;
8361;SDS011;4218;48.326;14.304;2023-02-15T04:25:20;18.37;;;16.47;;
8361;SDS011;4218;48.326;14.304;2023-02-15T04:27:50;18.77;;;16.77;;
8361;SDS011;4218;48.326;14.304;2023-02-15T04:30:18;19.17;;;16.83;;
8361;SDS011;4218;48.326;14.304;2023-02-15T04:32:46;17.03;;;15.10;;
8361;SDS011;4218;48.326;14.304;2023-02-15T04:35:12;15.83;;;14.23;;
8361;SDS011;4218;48.326;14.304;2023-02-15T04:37:38;17.13;;;15.53;;
8361;SDS011;4218;48.326;14.304;2023-02-15T04:40:04;17.10;;;15.37;;
8361;SDS011;4218;48.326;14.304;2023-02-15T04:42:31;18.63;;;16.93;;
8361;SDS011;4218;48.326;14.304;2023-02-15T04:44:57;18.17;;;16.30;;
8361;SDS011;4218;48.326;14.304;2023-02-15T04:47:23;17.80;;;14.30;;
8361;SDS011;4218;48.326;14.304;2023-02-15T04:49:48;17.13;;;14.67;;
8361;SDS011;4218;48.326;14.304;2023-02-15T04:52:14;21.23;;;17.13;;
8361;SDS011;4218;48.326;14.304;2023-02-15T04:54:40;18.73;;;16.90;;
8361;SDS011;4218;48.326;14.304;2023-02-15T04:57:05;26.13;;;19.87;;
8361;SDS011;4218;48.326;14.304;2023-02-15T04:59:31;24.67;;;18.10;;
8361;SDS011;4218;48.326;14.304;2023-02-15T05:01:56;25.20;;;17.00;;
8361;SDS011;4218;48.326;14.304;2023-02-15T05:04:22;21.17;;;16.53;;
8361;SDS011;4218;48.326;14.304;2023-02-15T05:06:47;19.13;;;17.27;;
8361;SDS011;4218;48.326;14.304;2023-02-15T05:09:13;21.33;;;18.97;;
8361;SDS011;4218;48.326;14.304;2023-02-15T05:11:38;19.93;;;18.00;;
8361;SDS011;4218;48.326;14.304;2023-02-15T05:14:04;16.40;;;14.77;;
8361;SDS011;4218;48.326;14.304;2023-02-15T05:16:30;20.93;;;15.83;;
8361;SDS011;4218;48.326;14.304;2023-02-15T05:18:55;17.60;;;15.77;;
8361;SDS011;4218;48.326;14.304;2023-02-15T05:21:22;16.50;;;14.90;;
8361;SDS011;4218;48.326;14.304;2023-02-15T05:23:48;14.83;;;13.43;;
8361;SDS011;4218;48.326;14.304;2023-02-15T05:26:16;22.33;;;20.23;;
8361;SDS011;4218;48.326;14.304;2023-02-15T05:29:02;17.80;;;16.20;;
8361;SDS011;4218;48.326;14.304;2023-02-15T05:31:27;18.57;;;16.70;;
8361;SDS011;4218;48.326;14.304;2023-02-15T05:33:53;21.47;;;17.53;;
8361;SDS011;4218;48.326;14.304;2023-02-15T05:36:18;22.77;;;19.00;;
8361;SDS011;4218;48.326;14.304;2023-02-15T05:38:44;16.73;;;15.17;;
8361;SDS011;4218;48.326;14.304;2023-02-15T05:41:12;21.73;;;19.60;;
8361;SDS011;4218;48.326;14.304;2023-02-15T05:43:38;21.93;;;20.03;;
8361;SDS011;4218;48.326;14.304;2023-02-15T05:46:06;18.03;;;16.37;;
8361;SDS011;4218;48.326;14.304;2023-02-15T05:48:32;17.40;;;15.73;;
8361;SDS011;4218;48.326;14.304;2023-02-15T05:51:02;27.00;;;24.50;;
8361;SDS011;4218;48.326;14.304;2023-02-15T05:53:37;15.60;;;14.20;;
8361;SDS011;4218;48.326;14.304;2023-02-15T05:56:04;16.50;;;14.90;;
8361;SDS011;4218;48.326;14.304;2023-02-15T05:58:32;20.87;;;18.87;;
8361;SDS011;4218;48.326;14.304;2023-02-15T06:01:06;21.53;;;19.60;;
8361;SDS011;4218;48.326;14.304;2023-02-15T06:03:33;16.60;;;15.10;;
8361;SDS011;4218;48.326;14.304;2023-02-15T06:05:58;17.57;;;15.93;;
8361;SDS011;4218;48.326;14.304;2023-02-15T06:08:24;17.73;;;16.07;;
8361;SDS011;4218;48.326;14.304;2023-02-15T06:10:49;19.87;;;17.93;;
8361;SDS011;4218;48.326;14.304;2023-02-15T06:13:14;19.33;;;17.23;;
8361;SDS011;4218;48.326;14.304;2023-02-15T06:15:40;18.43;;;16.87;;
8361;SDS011;4218;48.326;14.304;2023-02-15T06:18:08;20.33;;;18.53;;
8361;SDS011;4218;48.326;14.304;2023-02-15T06:20:33;24.30;;;22.37;;
8361;SDS011;4218;48.326;14.304;2023-02-15T06:22:59;18.60;;;16.93;;
8361;SDS011;4218;48.326;14.304;2023-02-15T06:25:24;20.10;;;18.50;;
8361;SDS011;4218;48.326;14.304;2023-02-15T06:27:50;27.93;;;25.43;;
8361;SDS011;4218;48.326;14.304;2023-02-15T06:30:15;20.97;;;18.77;;
8361;SDS011;4218;48.326;14.304;2023-02-15T06:32:41;16.60;;;15.00;;
8361;SDS011;4218;48.326;14.304;2023-02-15T06:35:06;17.73;;;16.13;;
8361;SDS011;4218;48.326;14.304;2023-02-15T06:37:32;18.13;;;16.47;;
8361;SDS011;4218;48.326;14.304;2023-02-15T06:39:57;16.23;;;14.73;;
8361;SDS011;4218;48.326;14.304;2023-02-15T06:42:23;19.43;;;17.67;;
8361;SDS011;4218;48.326;14.304;2023-02-15T06:44:49;20.77;;;19.07;;
8361;SDS011;4218;48.326;14.304;2023-02-15T06:47:14;19.70;;;18.10;;
8361;SDS011;4218;48.326;14.304;2023-02-15T06:49:40;17.20;;;15.60;;
8361;SDS011;4218;48.326;14.304;2023-02-15T06:52:05;16.10;;;14.73;;
8361;SDS011;4218;48.326;14.304;2023-02-15T06:54:30;14.67;;;13.27;;
8361;SDS011;4218;48.326;14.304;2023-02-15T06:56:56;27.00;;;24.97;;
8361;SDS011;4218;48.326;14.304;2023-02-15T06:59:21;18.37;;;16.87;;
8361;SDS011;4218;48.326;14.304;2023-02-15T07:01:47;18.87;;;17.07;;
8361;SDS011;4218;48.326;14.304;2023-02-15T07:04:12;17.83;;;16.23;;
8361;SDS011;4218;48.326;14.304;2023-02-15T07:06:38;21.93;;;19.97;;
8361;SDS011;4218;48.326;14.304;2023-02-15T07:09:04;16.70;;;15.13;;
8361;SDS011;4218;48.326;14.304;2023-02-15T07:11:29;16.13;;;14.80;;
8361;SDS011;4218;48.326;14.304;2023-02-15T07:14:14;17.83;;;15.93;;
8361;SDS011;4218;48.326;14.304;2023-02-15T07:16:39;15.20;;;13.70;;
8361;SDS011;4218;48.326;14.304;2023-02-15T07:19:05;16.53;;;15.20;;
8361;SDS011;4218;48.326;14.304;2023-02-15T07:21:31;19.17;;;17.67;;
8361;SDS011;4218;48.326;14.304;2023-02-15T07:23:57;18.73;;;16.93;;
8361;SDS011;4218;48.326;14.304;2023-02-15T07:26:23;19.73;;;17.87;;
8361;SDS011;4218;48.326;14.304;2023-02-15T07:28:49;17.17;;;15.57;;
8361;SDS011;4218;48.326;14.304;2023-02-15T07:31:15;17.20;;;15.70;;
8361;SDS011;4218;48.326;14.304;2023-02-15T07:33:41;16.00;;;14.60;;
8361;SDS011;4218;48.326;14.304;2023-02-15T07:36:06;16.30;;;14.87;;
8361;SDS011;4218;48.326;14.304;2023-02-15T07:38:35;16.17;;;14.67;;
8361;SDS011;4218;48.326;14.304;2023-02-15T07:41:02;16.63;;;14.90;;
8361;SDS011;4218;48.326;14.304;2023-02-15T07:43:30;15.87;;;14.47;;
8361;SDS011;4218;48.326;14.304;2023-02-15T07:46:04;16.17;;;14.33;;
8361;SDS011;4218;48.326;14.304;2023-02-15T07:48:33;16.10;;;14.47;;
8361;SDS011;4218;48.326;14.304;2023-02-15T07:50:59;18.67;;;15.50;;
8361;SDS011;4218;48.326;14.304;2023-02-15T07:53:26;20.00;;;14.97;;
8361;SDS011;4218;48.326;14.304;2023-02-15T07:55:51;17.27;;;14.10;;
8361;SDS011;4218;48.326;14.304;2023-02-15T07:58:17;18.13;;;16.23;;
8361;SDS011;4218;48.326;14.304;2023-02-15T08:00:43;17.47;;;15.73;;
8361;SDS011;4218;48.326;14.304;2023-02-15T08:03:25;19.10;;;15.33;;
8361;SDS011;4218;48.326;14.304;2023-02-15T08:05:55;20.20;;;16.17;;
8361;SDS011;4218;48.326;14.304;2023-02-15T08:08:23;19.57;;;15.37;;
8361;SDS011;4218;48.326;14.304;2023-02-15T08:10:58;21.53;;;16.47;;
8361;SDS011;4218;48.326;14.304;2023-02-15T08:13:46;18.90;;;16.27;;
8361;SDS011;4218;48.326;14.304;2023-02-15T08:18:47;21.13;;;17.07;;
8361;SDS011;4218;48.326;14.304;2023-02-15T08:21:13;24.10;;;18.77;;
8361;SDS011;4218;48.326;14.304;2023-02-15T08:23:38;20.83;;;18.30;;
8361;SDS011;4218;48.326;14.304;2023-02-15T08:26:04;27.33;;;19.73;;
8361;SDS011;4218;48.326;14.304;2023-02-15T08:28:29;28.70;;;20.70;;
8361;SDS011;4218;48.326;14.304;2023-02-15T08:30:56;27.67;;;19.37;;
8361;SDS011;4218;48.326;14.304;2023-02-15T08:33:29;28.20;;;20.53;;
8361;SDS011;4218;48.326;14.304;2023-02-15T08:35:54;30.90;;;19.87;;
8361;SDS011;4218;48.326;14.304;2023-02-15T08:38:20;35.63;;;21.90;;
8361;SDS011;4218;48.326;14.304;2023-02-15T08:40:45;30.97;;;20.23;;
8361;SDS011;4218;48.326;14.304;2023-02-15T08:43:11;37.70;;;23.83;;
8361;SDS011;4218;48.326;14.304;2023-02-15T08:45:36;36.93;;;21.80;;
8361;SDS011;4218;48.326;14.304;2023-02-15T08:48:01;39.50;;;23.63;;
8361;SDS011;4218;48.326;14.304;2023-02-15T08:50:27;33.10;;;21.37;;
8361;SDS011;4218;48.326;14.304;2023-02-15T08:52:52;37.17;;;21.70;;
8361;SDS011;4218;48.326;14.304;2023-02-15T08:55:19;36.23;;;25.57;;
8361;SDS011;4218;48.326;14.304;2023-02-15T08:57:44;32.13;;;26.23;;
8361;SDS011;4218;48.326;14.304;2023-02-15T09:00:10;37.17;;;24.67;;
8361;SDS011;4218;48.326;14.304;2023-02-15T09:02:36;34.57;;;24.90;;
8361;SDS011;4218;48.326;14.304;2023-02-15T09:05:02;39.87;;;24.57;;
8361;SDS011;4218;48.326;14.304;2023-02-15T09:07:27;32.47;;;23.83;;
8361;SDS011;4218;48.326;14.304;2023-02-15T09:09:53;29.87;;;21.97;;
8361;SDS011;4218;48.326;14.304;2023-02-15T09:12:19;37.07;;;27.37;;
8361;SDS011;4218;48.326;14.304;2023-02-15T09:14:44;36.27;;;25.10;;
8361;SDS011;4218;48.326;14.304;2023-02-15T09:17:09;34.07;;;25.70;;
8361;SDS011;4218;48.326;14.304;2023-02-15T09:19:35;41.00;;;29.70;;
8361;SDS011;4218;48.326;14.304;2023-02-15T09:22:00;34.23;;;27.30;;
8361;SDS011;4218;48.326;14.304;2023-02-15T09:24:26;36.80;;;25.13;;
8361;SDS011;4218;48.326;14.304;2023-02-15T09:26:52;34.30;;;27.90;;
8361;SDS011;4218;48.326;14.304;2023-02-15T09:29:18;32.27;;;26.83;;
8361;SDS011;4218;48.326;14.304;2023-02-15T09:31:47;32.93;;;24.20;;
8361;SDS011;4218;48.326;14.304;2023-02-15T09:34:15;38.50;;;26.07;;
8361;SDS011;4218;48.326;14.304;2023-02-15T09:36:42;36.97;;;27.13;;
8361;SDS011;4218;48.326;14.304;2023-02-15T09:50:07;35.17;;;26.03;;
8361;SDS011;4218;48.326;14.304;2023-02-15T09:58:11;55.27;;;31.13;;
8361;SDS011;4218;48.326;14.304;2023-02-15T10:03:33;58.57;;;31.50;;
8361;SDS011;4218;48.326;14.304;2023-02-15T10:28:05;62.23;;;34.27;;
8361;SDS011;4218;48.326;14.304;2023-02-15T10:39:08;76.03;;;37.63;;
8361;SDS011;4218;48.326;14.304;2023-02-15T10:41:53;85.37;;;39.03;;
8361;SDS011;4218;48.326;14.304;2023-02-15T10:47:41;84.33;;;42.57;;
8361;SDS011;4218;48.326;14.304;2023-02-15T10:50:51;83.23;;;39.67;;
8361;SDS011;4218;48.326;14.304;2023-02-15T10:53:41;88.87;;;46.27;;
8361;SDS011;4218;48.326;14.304;2023-02-15T10:56:24;97.17;;;43.83;;
8361;SDS011;4218;48.326;14.304;2023-02-15T11:09:54;70.90;;;40.70;;
8361;SDS011;4218;48.326;14.304;2023-02-15T11:12:27;83.77;;;44.17;;
8361;SDS011;4218;48.326;14.304;2023-02-15T11:14:58;88.07;;;44.53;;
8361;SDS011;4218;48.326;14.304;2023-02-15T11:17:35;78.73;;;42.47;;
8361;SDS011;4218;48.326;14.304;2023-02-15T11:20:23;80.07;;;40.63;;
8361;SDS011;4218;48.326;14.304;2023-02-15T11:22:53;81.60;;;41.60;;
8361;SDS011;4218;48.326;14.304;2023-02-15T11:25:20;74.63;;;38.50;;
8361;SDS011;4218;48.326;14.304;2023-02-15T11:27:50;78.40;;;39.50;;
8361;SDS011;4218;48.326;14.304;2023-02-15T11:30:20;88.20;;;43.10;;
8361;SDS011;4218;48.326;14.304;2023-02-15T11:32:48;78.53;;;40.90;;
8361;SDS011;4218;48.326;14.304;2023-02-15T11:35:24;85.43;;;41.23;;
8361;SDS011;4218;48.326;14.304;2023-02-15T11:37:57;76.97;;;38.33;;
8361;SDS011;4218;48.326;14.304;2023-02-15T11:46:05;77.87;;;40.17;;
8361;SDS011;4218;48.326;14.304;2023-02-15T11:48:31;68.30;;;36.60;;
8361;SDS011;4218;48.326;14.304;2023-02-15T11:50:57;68.83;;;37.57;;
8361;SDS011;4218;48.326;14.304;2023-02-15T11:53:23;66.30;;;39.70;;
8361;SDS011;4218;48.326;14.304;2023-02-15T11:55:52;52.90;;;37.90;;
8361;SDS011;4218;48.326;14.304;2023-02-15T12:01:16;72.47;;;53.90;;
8361;SDS011;4218;48.326;14.304;2023-02-15T12:03:51;69.13;;;38.97;;
8361;SDS011;4218;48.326;14.304;2023-02-15T12:11:41;67.10;;;39.27;;
8361;SDS011;4218;48.326;14.304;2023-02-15T12:14:07;58.30;;;36.53;;
8361;SDS011;4218;48.326;14.304;2023-02-15T12:16:48;62.87;;;43.20;;
8361;SDS011;4218;48.326;14.304;2023-02-15T12:22:05;65.97;;;37.07;;
8361;SDS011;4218;48.326;14.304;2023-02-15T12:24:45;59.23;;;37.13;;
8361;SDS011;4218;48.326;14.304;2023-02-15T12:27:24;56.37;;;36.37;;
8361;SDS011;4218;48.326;14.304;2023-02-15T12:29:55;58.10;;;41.10;;
8361;SDS011;4218;48.326;14.304;2023-02-15T12:32:24;50.37;;;33.33;;
8361;SDS011;4218;48.326;14.304;2023-02-15T12:34:56;39.53;;;32.87;;
8361;SDS011;4218;48.326;14.304;2023-02-15T12:37:35;47.57;;;35.80;;
8361;SDS011;4218;48.326;14.304;2023-02-15T12:40:02;45.23;;;33.37;;
8361;SDS011;4218;48.326;14.304;2023-02-15T12:42:45;45.83;;;33.73;;
8361;SDS011;4218;48.326;14.304;2023-02-15T12:45:27;53.97;;;39.33;;
8361;SDS011;4218;48.326;14.304;2023-02-15T12:50:53;56.93;;;37.43;;
8361;SDS011;4218;48.326;14.304;2023-02-15T12:53:34;48.23;;;35.43;;
8361;SDS011;4218;48.326;14.304;2023-02-15T12:56:01;51.47;;;40.90;;
8361;SDS011;4218;48.326;14.304;2023-02-15T12:58:38;42.57;;;37.97;;
8361;SDS011;4218;48.326;14.304;2023-02-15T13:03:33;77.00;;;49.00;;
8361;SDS011;4218;48.326;14.304;2023-02-15T13:06:01;69.47;;;42.33;;
8361;SDS011;4218;48.326;14.304;2023-02-15T13:08:33;66.47;;;41.70;;
8361;SDS011;4218;48.326;14.304;2023-02-15T13:14:19;67.00;;;40.73;;
8361;SDS011;4218;48.326;14.304;2023-02-15T13:16:48;74.30;;;49.17;;
8361;SDS011;4218;48.326;14.304;2023-02-15T13:19:18;76.20;;;46.60;;
8361;SDS011;4218;48.326;14.304;2023-02-15T13:21:50;69.70;;;39.27;;
8361;SDS011;4218;48.326;14.304;2023-02-15T13:24:27;62.53;;;45.53;;
8361;SDS011;4218;48.326;14.304;2023-02-15T13:26:57;68.13;;;44.90;;
8361;SDS011;4218;48.326;14.304;2023-02-15T13:29:30;66.13;;;47.90;;
8361;SDS011;4218;48.326;14.304;2023-02-15T13:32:03;72.73;;;43.70;;
8361;SDS011;4218;48.326;14.304;2023-02-15T13:34:59;76.30;;;45.57;;
8361;SDS011;4218;48.326;14.304;2023-02-15T13:51:40;60.73;;;37.07;;
8361;SDS011;4218;48.326;14.304;2023-02-15T14:08:08;62.30;;;35.83;;
8361;SDS011;4218;48.326;14.304;2023-02-15T14:10:46;64.43;;;35.03;;
8361;SDS011;4218;48.326;14.304;2023-02-15T14:21:16;73.63;;;42.77;;
8361;SDS011;4218;48.326;14.304;2023-02-15T14:29:13;82.90;;;43.90;;
8361;SDS011;4218;48.326;14.304;2023-02-15T14:31:47;94.30;;;46.10;;
8361;SDS011;4218;48.326;14.304;2023-02-15T14:40:08;99.47;;;46.20;;
8361;SDS011;4218;48.326;14.304;2023-02-15T14:46:44;104.00;;;49.13;;
8361;SDS011;4218;48.326;14.304;2023-02-15T15:03:04;81.30;;;44.10;;
8361;SDS011;4218;48.326;14.304;2023-02-15T15:05:27;96.17;;;43.47;;
8361;SDS011;4218;48.326;14.304;2023-02-15T15:07:58;92.17;;;41.50;;
8361;SDS011;4218;48.326;14.304;2023-02-15T15:13:34;99.73;;;43.03;;
8361;SDS011;4218;48.326;14.304;2023-02-15T15:15:55;90.77;;;45.00;;
8361;SDS011;4218;48.326;14.304;2023-02-15T15:19:04;92.57;;;43.17;;
8361;SDS011;4218;48.326;14.304;2023-02-15T15:49:54;72.60;;;36.07;;
8361;SDS011;4218;48.326;14.304;2023-02-15T15:52:23;74.87;;;36.67;;
8361;SDS011;4218;48.326;14.304;2023-02-15T15:54:53;79.13;;;38.80;;
8361;SDS011;4218;48.326;14.304;2023-02-15T15:57:41;69.93;;;36.37;;
8361;SDS011;4218;48.326;14.304;2023-02-15T16:03:47;74.43;;;35.60;;
8361;SDS011;4218;48.326;14.304;2023-02-15T16:06:01;73.93;;;36.03;;
8361;SDS011;4218;48.326;14.304;2023-02-15T16:08:29;70.67;;;34.93;;
8361;SDS011;4218;48.326;14.304;2023-02-15T16:11:08;63.13;;;35.30;;
8361;SDS011;4218;48.326;14.304;2023-02-15T16:13:39;76.43;;;37.40;;
8361;SDS011;4218;48.326;14.304;2023-02-15T16:16:06;72.13;;;38.63;;
8361;SDS011;4218;48.326;14.304;2023-02-15T16:18:32;66.87;;;40.60;;
8361;SDS011;4218;48.326;14.304;2023-02-15T16:20:58;68.17;;;34.97;;
8361;SDS011;4218;48.326;14.304;2023-02-15T16:26:32;65.17;;;36.27;;
8361;SDS011;4218;48.326;14.304;2023-02-15T16:29:23;65.60;;;37.73;;
8361;SDS011;4218;48.326;14.304;2023-02-15T16:34:30;71.50;;;35.23;;
8361;SDS011;4218;48.326;14.304;2023-02-15T16:37:13;63.97;;;33.97;;
8361;SDS011;4218;48.326;14.304;2023-02-15T16:39:41;64.93;;;35.60;;
8361;SDS011;4218;48.326;14.304;2023-02-15T16:42:10;60.50;;;33.70;;
8361;SDS011;4218;48.326;14.304;2023-02-15T16:44:39;57.40;;;33.33;;
8361;SDS011;4218;48.326;14.304;2023-02-15T16:47:05;59.40;;;33.47;;
8361;SDS011;4218;48.326;14.304;2023-02-15T16:49:50;64.40;;;35.40;;
8361;SDS011;4218;48.326;14.304;2023-02-15T16:52:21;63.00;;;34.10;;
8361;SDS011;4218;48.326;14.304;2023-02-15T16:54:56;57.87;;;31.60;;
8361;SDS011;4218;48.326;14.304;2023-02-15T16:57:24;64.33;;;39.07;;
8361;SDS011;4218;48.326;14.304;2023-02-15T16:59:55;57.77;;;31.10;;
8361;SDS011;4218;48.326;14.304;2023-02-15T17:02:29;67.40;;;34.60;;
8361;SDS011;4218;48.326;14.304;2023-02-15T17:05:16;67.87;;;35.13;;
8361;SDS011;4218;48.326;14.304;2023-02-15T17:07:49;58.30;;;30.80;;
8361;SDS011;4218;48.326;14.304;2023-02-15T17:10:26;66.73;;;34.57;;
8361;SDS011;4218;48.326;14.304;2023-02-15T17:12:54;73.47;;;35.70;;
8361;SDS011;4218;48.326;14.304;2023-02-15T17:18:18;75.07;;;39.00;;
8361;SDS011;4218;48.326;14.304;2023-02-15T17:20:46;76.47;;;39.40;;
8361;SDS011;4218;48.326;14.304;2023-02-15T17:23:20;69.23;;;35.63;;
8361;SDS011;4218;48.326;14.304;2023-02-15T17:25:50;62.10;;;34.47;;
8361;SDS011;4218;48.326;14.304;2023-02-15T17:28:17;63.33;;;34.57;;
8361;SDS011;4218;48.326;14.304;2023-02-15T17:30:54;80.33;;;38.43;;
8361;SDS011;4218;48.326;14.304;2023-02-15T17:38:30;65.97;;;36.33;;
8361;SDS011;4218;48.326;14.304;2023-02-15T17:40:56;66.40;;;35.50;;
8361;SDS011;4218;48.326;14.304;2023-02-15T17:43:26;70.80;;;35.73;;
8361;SDS011;4218;48.326;14.304;2023-02-15T17:45:52;80.17;;;39.17;;
8361;SDS011;4218;48.326;14.304;2023-02-15T17:48:20;72.77;;;36.73;;
8361;SDS011;4218;48.326;14.304;2023-02-15T17:50:48;73.17;;;37.07;;
8361;SDS011;4218;48.326;14.304;2023-02-15T17:53:17;67.60;;;33.47;;
8361;SDS011;4218;48.326;14.304;2023-02-15T17:55:43;66.87;;;35.70;;
8361;SDS011;4218;48.326;14.304;2023-02-15T17:58:11;60.43;;;32.47;;
8361;SDS011;4218;48.326;14.304;2023-02-15T18:00:39;68.93;;;33.00;;
8361;SDS011;4218;48.326;14.304;2023-02-15T18:03:38;69.30;;;33.67;;
8361;SDS011;4218;48.326;14.304;2023-02-15T18:06:31;57.70;;;36.83;;
8361;SDS011;4218;48.326;14.304;2023-02-15T18:09:18;62.90;;;34.63;;
8361;SDS011;4218;48.326;14.304;2023-02-15T18:12:20;65.33;;;34.03;;
8361;SDS011;4218;48.326;14.304;2023-02-15T18:14:47;65.83;;;34.20;;
8361;SDS011;4218;48.326;14.304;2023-02-15T18:17:13;55.30;;;31.97;;
8361;SDS011;4218;48.326;14.304;2023-02-15T18:19:44;59.60;;;31.07;;
8361;SDS011;4218;48.326;14.304;2023-02-15T18:22:11;57.30;;;31.70;;
8361;SDS011;4218;48.326;14.304;2023-02-15T18:24:38;62.10;;;32.87;;
8361;SDS011;4218;48.326;14.304;2023-02-15T18:27:07;58.40;;;32.63;;
8361;SDS011;4218;48.326;14.304;2023-02-15T18:29:34;65.40;;;33.70;;
8361;SDS011;4218;48.326;14.304;2023-02-15T18:31:59;67.87;;;35.13;;
8361;SDS011;4218;48.326;14.304;2023-02-15T18:34:33;65.93;;;34.93;;
8361;SDS011;4218;48.326;14.304;2023-02-15T18:37:02;57.90;;;36.23;;
8361;SDS011;4218;48.326;14.304;2023-02-15T18:39:37;70.37;;;38.43;;
8361;SDS011;4218;48.326;14.304;2023-02-15T18:42:17;54.93;;;34.23;;
8361;SDS011;4218;48.326;14.304;2023-02-15T18:44:44;66.73;;;42.03;;
8361;SDS011;4218;48.326;14.304;2023-02-15T18:47:11;60.03;;;33.63;;
8361;SDS011;4218;48.326;14.304;2023-02-15T18:49:36;59.73;;;35.63;;
8361;SDS011;4218;48.326;14.304;2023-02-15T18:52:02;59.10;;;35.63;;
8361;SDS011;4218;48.326;14.304;2023-02-15T18:54:27;61.87;;;35.30;;